Terminal Aerodrome Forecast
Issued by NWS Huntsville, AL

Home | Current Version | Previous Version | Text Only | Print | Product List | Glossary On
Versions: 1 2 3 4 5 6 7 8 9 10 11 12 13
000
FTUS44 KHUN 251720
TAFMSL
TAF
KMSL 251720Z 2518/2618 VRB03KT P6SM SKC
     FM260000 VRB02KT P6SM SKC
     FM260900 00000KT 4SM BR SCT005
      TEMPO 2609/2613 1SM BR SCT001
     FM261400 VRB03KT P6SM SKC=

USA.gov is the U.S. government's official web portal to all federal, state and local government web resources and services.